createdAt,value
2023-01-03T00:01:53.454Z,2.08
2023-01-03T00:03:56.730Z,1.80
2023-01-03T00:05:59.029Z,2.28
2023-01-03T00:08:01.148Z,1.88
2023-01-03T00:10:08.248Z,2.58
2023-01-03T00:12:30.486Z,2.20
2023-01-03T00:14:35.204Z,2.30
2023-01-03T00:16:37.473Z,2.15
2023-01-03T00:18:39.692Z,1.98
2023-01-03T00:20:41.928Z,2.00
2023-01-03T00:22:44.118Z,2.00
2023-01-03T00:24:46.979Z,2.00
2023-01-03T00:26:49.262Z,2.75
2023-01-03T00:28:51.384Z,2.10
2023-01-03T00:30:53.527Z,2.38
2023-01-03T00:32:55.689Z,1.98
2023-01-03T00:35:03.071Z,2.15
2023-01-03T00:37:07.383Z,2.00
2023-01-03T00:39:11.800Z,1.90
2023-01-03T00:41:15.301Z,1.90
2023-01-03T00:43:29.530Z,2.03
2023-01-03T00:45:35.251Z,1.88
2023-01-03T00:47:37.973Z,1.90
2023-01-03T00:49:40.108Z,1.88
2023-01-03T00:51:42.735Z,2.00
2023-01-03T00:53:45.863Z,2.38
2023-01-03T00:55:47.994Z,2.08
2023-01-03T00:57:50.142Z,2.05
2023-01-03T00:59:52.233Z,1.85
2023-01-03T01:01:55.743Z,2.22
2023-01-03T01:03:59.864Z,2.42
2023-01-03T01:06:10.579Z,2.67
2023-01-03T01:08:12.748Z,2.30
2023-01-03T01:10:14.881Z,2.72
2023-01-03T01:12:17.035Z,2.97
2023-01-03T01:14:20.965Z,2.28
2023-01-03T01:16:25.104Z,2.60
2023-01-03T01:18:27.756Z,2.58
2023-01-03T01:20:29.943Z,2.70
2023-01-03T01:22:32.105Z,2.95
2023-01-03T01:24:34.423Z,2.42
2023-01-03T01:26:36.570Z,2.22
2023-01-03T01:28:38.973Z,2.22
2023-01-03T01:30:41.167Z,2.17
2023-01-03T01:32:43.375Z,2.15
2023-01-03T01:34:45.558Z,2.53
2023-01-03T01:36:48.134Z,2.38
2023-01-03T01:38:53.690Z,2.50
2023-01-03T01:40:56.273Z,2.40
2023-01-03T01:43:35.313Z,2.50
2023-01-03T01:45:38.674Z,2.70
2023-01-03T01:47:55.366Z,2.10
2023-01-03T01:50:16.920Z,2.50
2023-01-03T01:52:20.521Z,2.35
2023-01-03T01:54:22.749Z,2.35
2023-01-03T01:56:27.373Z,2.20
2023-01-03T01:58:37.607Z,2.95
2023-01-03T02:00:40.549Z,2.58
2023-01-03T02:02:43.228Z,2.38
2023-01-03T02:06:47.524Z,2.10
2023-01-03T02:08:49.837Z,2.40
2023-01-03T02:10:54.938Z,2.30
2023-01-03T02:13:08.209Z,2.40
2023-01-03T02:15:25.517Z,2.15
2023-01-03T02:17:47.878Z,2.45
2023-01-03T02:19:53.204Z,2.42
2023-01-03T02:22:14.087Z,2.50
2023-01-03T02:24:28.066Z,2.33
2023-01-03T02:26:32.959Z,2.40
2023-01-03T02:28:37.807Z,2.15
2023-01-03T02:30:41.685Z,1.75
2023-01-03T02:32:45.773Z,1.75
2023-01-03T02:34:56.660Z,1.55
2023-01-03T02:37:17.422Z,1.95
2023-01-03T02:39:23.639Z,1.67
2023-01-03T02:41:45.316Z,1.45
2023-01-03T02:43:51.796Z,1.33
2023-01-03T02:46:16.573Z,1.50
2023-01-03T02:48:24.534Z,1.63
2023-01-03T02:50:28.222Z,1.25
2023-01-03T02:52:32.456Z,1.50
2023-01-03T02:54:36.033Z,1.25
2023-01-03T02:56:40.715Z,1.55
2023-01-03T02:58:45.030Z,1.20
2023-01-03T03:00:48.786Z,1.30
2023-01-03T03:02:53.267Z,1.35
2023-01-03T03:04:57.433Z,1.40
2023-01-03T03:06:59.584Z,1.58
2023-01-03T03:09:01.753Z,1.52
2023-01-03T03:11:22.676Z,1.42
2023-01-03T03:13:35.115Z,1.50
2023-01-03T03:15:41.255Z,1.50
2023-01-03T03:17:44.371Z,1.40
2023-01-03T03:20:06.974Z,1.10
2023-01-03T03:22:31.536Z,1.48
2023-01-03T03:30:37.679Z,1.33
2023-01-03T03:32:41.117Z,1.20
2023-01-03T03:34:43.894Z,1.13
2023-01-03T03:38:48.176Z,0.85
2023-01-03T03:41:16.926Z,1.20
2023-01-03T03:43:44.619Z,0.98
2023-01-03T03:45:59.612Z,1.20
2023-01-03T03:48:05.203Z,1.20
2023-01-03T03:50:16.185Z,1.20
2023-01-03T03:52:20.012Z,1.20
2023-01-03T03:54:23.840Z,0.95
2023-01-03T03:56:31.917Z,1.20
2023-01-03T03:58:41.788Z,1.30
2023-01-03T04:00:45.025Z,1.08
2023-01-03T04:02:47.594Z,1.10
2023-01-03T04:06:52.648Z,1.27
2023-01-03T04:08:54.767Z,0.98
2023-01-03T04:11:05.712Z,1.35
2023-01-03T04:13:08.134Z,1.30
2023-01-03T04:15:10.454Z,1.20
2023-01-03T04:17:12.654Z,1.05
2023-01-03T04:19:14.802Z,1.30
2023-01-03T04:21:20.804Z,1.17
2023-01-03T04:23:23.338Z,1.10
2023-01-03T04:25:25.912Z,1.35
2023-01-03T04:27:28.393Z,1.40
2023-01-03T04:29:34.138Z,1.40
2023-01-03T04:31:41.108Z,1.60
2023-01-03T04:33:43.273Z,1.90
2023-01-03T04:35:45.412Z,1.63
2023-01-03T04:37:47.590Z,1.80
2023-01-03T04:39:49.707Z,1.80
2023-01-03T04:41:51.844Z,1.60
2023-01-03T04:44:03.329Z,1.58
2023-01-03T04:46:05.669Z,1.60
2023-01-03T04:48:08.099Z,1.50
2023-01-03T04:50:10.559Z,1.63
2023-01-03T04:52:13.264Z,1.60
2023-01-03T04:56:17.446Z,1.48
2023-01-03T04:58:20.077Z,1.85
2023-01-03T05:02:24.501Z,1.58
2023-01-03T05:04:26.776Z,1.70
2023-01-03T05:06:29.460Z,1.50
2023-01-03T05:08:31.828Z,1.70
2023-01-03T05:10:33.977Z,1.65
2023-01-03T05:12:36.138Z,1.40
2023-01-03T05:14:41.408Z,1.75
2023-01-03T05:16:43.788Z,1.38
2023-01-03T05:18:47.107Z,1.73
2023-01-03T05:21:07.792Z,2.08
2023-01-03T05:23:32.231Z,1.80
2023-01-03T05:25:49.805Z,1.48
2023-01-03T05:27:52.033Z,1.90
2023-01-03T05:29:54.740Z,1.48
2023-01-03T05:33:59.526Z,1.70
2023-01-03T05:38:03.778Z,3.00
2023-01-03T05:40:06.236Z,3.20
2023-01-03T05:42:08.379Z,3.50
2023-01-03T05:44:10.546Z,4.30
2023-01-03T05:46:12.713Z,3.92
2023-01-03T05:48:14.876Z,3.97
2023-01-03T05:50:17.027Z,4.22
2023-01-03T05:52:19.251Z,4.18
2023-01-03T05:54:21.618Z,4.60
2023-01-03T05:56:23.867Z,4.50
2023-01-03T05:58:26.029Z,5.13
2023-01-03T06:00:28.211Z,4.68
2023-01-03T06:02:30.425Z,3.53
2023-01-03T06:04:32.700Z,3.20
2023-01-03T06:06:35.114Z,2.90
2023-01-03T06:08:37.228Z,2.95
2023-01-03T06:10:40.904Z,2.72
2023-01-03T06:12:43.177Z,2.72
2023-01-03T06:14:45.344Z,2.72
2023-01-03T06:17:06.072Z,2.72
2023-01-03T06:19:08.679Z,2.70
2023-01-03T06:21:10.838Z,3.20
2023-01-03T06:23:12.962Z,2.80
2023-01-03T06:25:15.111Z,3.22
2023-01-03T06:27:17.398Z,3.03
2023-01-03T06:29:19.615Z,3.33
2023-01-03T06:31:21.893Z,2.70
2023-01-03T06:33:24.127Z,3.30
2023-01-03T06:35:26.284Z,3.03
2023-01-03T06:37:28.478Z,3.22
2023-01-03T06:39:30.592Z,3.10
2023-01-03T06:41:32.704Z,3.00
2023-01-03T06:43:35.130Z,3.05
2023-01-03T06:45:56.153Z,3.28
2023-01-03T06:48:17.142Z,3.20
2023-01-03T06:50:38.153Z,3.15
2023-01-03T06:52:58.989Z,3.13
2023-01-03T06:55:01.632Z,3.50
2023-01-03T06:57:03.932Z,2.45
2023-01-03T06:59:06.074Z,2.95
2023-01-03T07:01:08.396Z,2.70
2023-01-03T07:03:11.736Z,3.55
2023-01-03T07:05:14.103Z,2.95
2023-01-03T07:07:16.250Z,2.80
2023-01-03T07:09:18.561Z,3.00
2023-01-03T07:11:23.697Z,2.90
2023-01-03T07:13:44.606Z,3.20
2023-01-03T07:15:47.122Z,3.00
2023-01-03T07:17:49.331Z,3.63
2023-01-03T07:19:51.451Z,3.22
2023-01-03T07:21:53.650Z,3.55
2023-01-03T07:23:56.709Z,3.33
2023-01-03T07:25:58.896Z,3.40
2023-01-03T07:28:06.352Z,3.10
2023-01-03T07:30:09.675Z,2.70
2023-01-03T07:32:11.795Z,3.15
2023-01-03T07:34:14.488Z,3.40
2023-01-03T07:38:18.716Z,3.35
2023-01-03T07:40:20.918Z,3.08
2023-01-03T07:42:41.391Z,3.80
2023-01-03T07:44:43.551Z,4.63
2023-01-03T07:46:45.778Z,3.88
2023-01-03T07:48:49.202Z,3.80
2023-01-03T07:50:51.373Z,3.50
2023-01-03T07:52:53.520Z,3.85
2023-01-03T07:54:55.661Z,3.90
2023-01-03T07:56:57.848Z,4.20
2023-01-03T07:59:00.391Z,4.18
2023-01-03T08:01:03.879Z,3.70
2023-01-03T08:03:10.599Z,3.88
2023-01-03T08:05:13.513Z,3.72
2023-01-03T08:07:15.717Z,4.05
2023-01-03T08:09:36.616Z,4.18
2023-01-03T08:11:57.701Z,4.35
2023-01-03T08:14:00.318Z,3.80
2023-01-03T08:16:02.493Z,4.07
2023-01-03T08:18:04.860Z,3.92
2023-01-03T08:20:07.432Z,4.43
2023-01-03T08:22:09.589Z,4.65
2023-01-03T08:24:11.753Z,4.20
2023-01-03T08:26:15.190Z,5.13
2023-01-03T08:28:17.473Z,4.85
2023-01-03T08:30:19.641Z,4.72
2023-01-03T08:32:22.147Z,4.93
2023-01-03T08:34:29.702Z,6.28
2023-01-03T08:36:35.070Z,5.55
2023-01-03T08:38:40.580Z,6.10
2023-01-03T08:40:43.499Z,6.20
2023-01-03T08:42:46.086Z,6.47
2023-01-03T08:44:49.172Z,5.30
2023-01-03T08:46:54.373Z,4.60
2023-01-03T08:48:56.897Z,4.35
2023-01-03T08:50:59.034Z,4.32
2023-01-03T08:53:01.221Z,4.80
2023-01-03T08:55:03.429Z,4.80
2023-01-03T08:57:05.775Z,4.82
2023-01-03T08:59:08.416Z,4.68
2023-01-03T09:03:14.121Z,5.18
2023-01-03T09:05:17.021Z,4.80
2023-01-03T09:09:21.290Z,4.43
2023-01-03T09:11:23.687Z,4.45
2023-01-03T09:13:26.035Z,4.30
2023-01-03T09:15:28.193Z,4.68
2023-01-03T09:17:30.681Z,4.60
2023-01-03T09:19:33.142Z,4.70
2023-01-03T09:21:35.322Z,4.82
2023-01-03T09:23:38.043Z,6.38
2023-01-03T09:27:46.058Z,5.53
2023-01-03T09:29:48.912Z,5.90
2023-01-03T09:31:51.490Z,6.70
2023-01-03T09:33:54.007Z,7.57
2023-01-03T09:35:56.204Z,6.93
2023-01-03T09:37:58.379Z,7.13
2023-01-03T09:40:00.592Z,6.55
2023-01-03T09:42:21.702Z,5.60
2023-01-03T09:44:23.838Z,5.90
2023-01-03T09:46:26.865Z,5.43
2023-01-03T09:48:37.948Z,5.40
2023-01-03T09:51:14.260Z,5.50
2023-01-03T09:53:21.759Z,5.30
2023-01-03T09:55:50.090Z,4.97
2023-01-03T09:58:27.463Z,4.93
2023-01-03T10:01:02.576Z,5.40
2023-01-03T10:03:38.594Z,4.90
2023-01-03T10:05:47.407Z,5.85
2023-01-03T10:08:01.272Z,5.63
2023-01-03T10:10:03.385Z,5.60
2023-01-03T10:12:05.564Z,5.47
2023-01-03T10:14:13.700Z,6.72
2023-01-03T10:16:18.634Z,4.88
2023-01-03T10:18:30.074Z,5.25
2023-01-03T10:20:38.980Z,5.03
2023-01-03T10:22:41.564Z,4.95
2023-01-03T10:25:01.104Z,4.97
2023-01-03T10:27:22.927Z,5.05
2023-01-03T10:29:25.192Z,5.90
2023-01-03T10:31:47.308Z,5.00
2023-01-03T10:33:50.305Z,5.53
2023-01-03T10:35:52.509Z,6.22
2023-01-03T10:37:55.350Z,5.97
2023-01-03T10:40:04.058Z,5.85
2023-01-03T10:42:06.312Z,6.70
2023-01-03T10:44:21.574Z,6.43
2023-01-03T10:46:25.428Z,6.07
2023-01-03T10:48:52.581Z,6.30
2023-01-03T10:50:57.699Z,6.57
2023-01-03T10:53:01.341Z,6.95
2023-01-03T10:55:05.327Z,6.50
2023-01-03T10:57:07.660Z,6.90
2023-01-03T10:59:29.562Z,6.65
2023-01-03T11:01:32.061Z,6.88
2023-01-03T11:03:34.389Z,6.97
2023-01-03T11:05:37.140Z,6.72
2023-01-03T11:09:48.836Z,5.32
2023-01-03T11:11:54.541Z,5.97
2023-01-03T11:14:11.598Z,6.22
2023-01-03T11:16:15.814Z,5.97
2023-01-03T11:18:19.062Z,6.18
2023-01-03T11:20:21.869Z,6.60
2023-01-03T11:22:29.802Z,5.88
2023-01-03T11:24:34.422Z,6.32
2023-01-03T11:26:43.030Z,5.43
2023-01-03T11:28:57.572Z,5.00
2023-01-03T11:31:05.235Z,4.82
2023-01-03T11:33:29.297Z,4.85
2023-01-03T11:35:42.560Z,5.00
2023-01-03T11:37:50.601Z,4.40
2023-01-03T11:40:11.528Z,3.75
2023-01-03T11:42:19.901Z,3.65
2023-01-03T11:44:24.865Z,4.32
2023-01-03T11:46:29.874Z,5.32
2023-01-03T11:48:46.985Z,5.97
2023-01-03T11:50:54.095Z,5.18
2023-01-03T11:52:56.237Z,4.68
2023-01-03T11:55:16.423Z,4.57
2023-01-03T11:57:21.394Z,4.57
2023-01-03T11:59:23.576Z,4.72
2023-01-03T12:01:44.720Z,3.90
2023-01-03T12:04:05.271Z,3.83
2023-01-03T12:06:14.517Z,3.53
2023-01-03T12:08:32.469Z,3.70
2023-01-03T12:10:37.615Z,3.65
2023-01-03T12:12:51.723Z,3.67
2023-01-03T12:14:56.753Z,3.63
2023-01-03T12:17:06.828Z,3.40
2023-01-03T12:19:14.799Z,3.17
2023-01-03T12:21:24.566Z,3.33
2023-01-03T12:23:26.744Z,3.20
2023-01-03T12:25:35.273Z,3.05
2023-01-03T12:27:42.513Z,3.45
2023-01-03T12:29:49.984Z,3.88
2023-01-03T12:31:56.696Z,3.75
2023-01-03T12:34:10.841Z,3.78
2023-01-03T12:36:22.003Z,3.72
2023-01-03T12:38:29.988Z,4.10
2023-01-03T12:40:40.061Z,3.53
2023-01-03T12:42:46.677Z,3.53
2023-01-03T12:44:49.871Z,2.70
2023-01-03T12:46:53.132Z,2.90
2023-01-03T12:49:02.449Z,2.88
2023-01-03T12:51:04.794Z,3.08
2023-01-03T12:53:13.127Z,2.70
2023-01-03T12:55:21.506Z,2.70
2023-01-03T12:57:42.460Z,2.47
2023-01-03T12:59:55.012Z,2.05
2023-01-03T13:02:01.799Z,2.30
2023-01-03T13:04:10.458Z,2.30
2023-01-03T13:06:21.808Z,2.60
2023-01-03T13:08:45.161Z,2.40
2023-01-03T13:10:52.369Z,2.67
2023-01-03T13:12:54.699Z,2.47
2023-01-03T13:15:02.863Z,2.55
2023-01-03T13:17:05.055Z,3.17
2023-01-03T13:19:22.421Z,2.83
2023-01-03T13:21:43.146Z,2.80
2023-01-03T13:23:59.112Z,3.63
2023-01-03T13:26:07.144Z,3.10
2023-01-03T13:28:09.326Z,3.00
2023-01-03T13:30:40.880Z,2.88
2023-01-03T13:33:16.756Z,3.30
2023-01-03T13:35:20.882Z,3.10
2023-01-03T13:37:26.865Z,3.20
2023-01-03T13:39:39.521Z,2.65
2023-01-03T13:41:41.755Z,2.70
2023-01-03T13:43:45.373Z,2.85
2023-01-03T13:45:47.491Z,2.70
2023-01-03T13:47:54.179Z,2.63
2023-01-03T13:49:56.324Z,2.85
2023-01-03T13:51:59.322Z,2.72
2023-01-03T13:54:03.670Z,2.63
2023-01-03T13:56:17.726Z,3.35
2023-01-03T13:58:28.553Z,3.55
2023-01-03T14:00:31.768Z,3.15
2023-01-03T14:02:40.106Z,2.70
2023-01-03T14:05:01.147Z,3.10
2023-01-03T14:07:06.013Z,2.72
2023-01-03T14:09:16.865Z,2.65
2023-01-03T14:11:21.550Z,2.75
2023-01-03T14:13:32.509Z,2.65
2023-01-03T14:15:34.632Z,3.38
2023-01-03T14:17:37.213Z,3.80
2023-01-03T14:19:41.111Z,3.33
2023-01-03T14:21:49.365Z,2.70
2023-01-03T14:24:00.588Z,2.97
2023-01-03T14:26:06.680Z,2.95
2023-01-03T14:28:14.453Z,3.25
2023-01-03T14:30:21.154Z,3.47
2023-01-03T14:32:33.948Z,3.20
2023-01-03T14:34:37.840Z,3.47
2023-01-03T14:36:46.779Z,3.25
2023-01-03T14:38:51.808Z,3.15
2023-01-03T14:40:57.235Z,2.97
2023-01-03T14:43:03.939Z,4.13
2023-01-03T14:45:08.557Z,3.42
2023-01-03T14:47:17.625Z,3.53
2023-01-03T14:49:25.883Z,3.70
2023-01-03T14:51:30.176Z,3.47
2023-01-03T14:53:33.583Z,3.95
2023-01-03T14:55:35.730Z,3.90
2023-01-03T14:57:39.168Z,3.58
2023-01-03T14:59:41.373Z,3.97
2023-01-03T15:01:44.398Z,4.03
2023-01-03T15:03:48.068Z,4.07
2023-01-03T15:05:59.384Z,4.20
2023-01-03T15:08:10.872Z,4.40
2023-01-03T15:10:13.214Z,4.25
2023-01-03T15:12:15.750Z,4.70
2023-01-03T15:14:18.421Z,5.40
2023-01-03T15:16:20.570Z,5.35
2023-01-03T15:18:24.704Z,5.07
2023-01-03T15:20:35.184Z,5.47
2023-01-03T15:22:41.098Z,5.85
2023-01-03T15:24:44.938Z,5.38
2023-01-03T15:26:48.456Z,5.55
2023-01-03T15:28:50.596Z,5.72
2023-01-03T15:30:53.247Z,5.90
2023-01-03T15:34:57.597Z,5.82
2023-01-03T15:37:01.637Z,5.38
2023-01-03T15:39:03.918Z,5.80
2023-01-03T15:41:38.312Z,5.60
2023-01-03T15:43:41.754Z,5.75
2023-01-03T15:45:43.968Z,5.72
2023-01-03T15:47:46.595Z,6.47
2023-01-03T15:49:50.034Z,6.50
2023-01-03T15:51:52.252Z,6.82
2023-01-03T15:53:54.406Z,7.15
2023-01-03T15:56:01.172Z,6.15
2023-01-03T15:58:03.300Z,6.28
2023-01-03T16:00:06.386Z,5.50
2023-01-03T16:02:26.992Z,6.20
2023-01-03T16:04:29.468Z,6.97
2023-01-03T16:06:32.632Z,5.90
2023-01-03T16:08:35.825Z,5.88
2023-01-03T16:10:38.012Z,5.13
2023-01-03T16:12:43.512Z,5.60
2023-01-03T16:14:47.347Z,5.70
2023-01-03T16:16:50.968Z,5.97
2023-01-03T16:18:53.574Z,6.53
2023-01-03T16:20:56.781Z,5.88
2023-01-03T16:23:01.757Z,6.75
2023-01-03T16:25:05.342Z,6.28
2023-01-03T16:27:17.921Z,5.72
2023-01-03T16:29:20.123Z,6.55
2023-01-03T16:31:32.474Z,6.90
2023-01-03T16:33:36.492Z,6.72
2023-01-03T16:35:38.763Z,7.28
2023-01-03T16:37:40.909Z,6.80
2023-01-03T16:39:47.906Z,6.55
2023-01-03T16:42:10.342Z,6.72
2023-01-03T16:44:12.520Z,6.97
2023-01-03T16:46:15.691Z,6.72
2023-01-03T16:48:20.325Z,6.85
2023-01-03T16:50:22.666Z,6.25
2023-01-03T16:52:29.183Z,6.50
2023-01-03T16:54:31.407Z,6.00
2023-01-03T16:56:33.519Z,6.80
2023-01-03T16:58:35.742Z,6.32
2023-01-03T17:00:37.867Z,6.28
2023-01-03T17:02:40.182Z,6.60
2023-01-03T17:04:42.808Z,6.43
2023-01-03T17:06:45.264Z,7.28
2023-01-03T17:08:47.436Z,6.85
2023-01-03T17:10:51.609Z,7.07
2023-01-03T17:12:54.251Z,7.15
2023-01-03T17:14:57.083Z,7.88
2023-01-03T17:16:59.273Z,7.30
2023-01-03T17:19:01.598Z,7.28
2023-01-03T17:21:09.468Z,7.13
2023-01-03T17:23:11.786Z,7.00
2023-01-03T17:25:13.947Z,6.22
2023-01-03T17:27:24.967Z,6.47
2023-01-03T17:29:31.662Z,6.30
2023-01-03T17:31:33.923Z,6.40
2023-01-03T17:33:36.152Z,6.32
2023-01-03T17:35:39.243Z,5.65
2023-01-03T17:38:14.218Z,6.25
2023-01-03T17:40:04.112Z,6.85
2023-01-03T17:42:16.131Z,6.75
2023-01-03T17:44:18.284Z,7.10
2023-01-03T17:46:47.249Z,6.75
2023-01-03T17:49:07.779Z,7.07
2023-01-03T17:51:12.533Z,6.60
2023-01-03T17:53:17.004Z,8.07
2023-01-03T17:55:20.811Z,6.72
2023-01-03T17:57:23.226Z,7.18
2023-01-03T17:59:25.854Z,5.88
2023-01-03T18:03:31.040Z,6.60
2023-01-03T18:05:33.437Z,7.57
2023-01-03T18:07:35.660Z,8.05
2023-01-03T18:09:38.078Z,7.57
2023-01-03T18:11:40.206Z,8.05
2023-01-03T18:13:42.730Z,7.68
2023-01-03T18:15:44.936Z,8.20
2023-01-03T18:17:47.172Z,8.63
2023-01-03T18:19:49.302Z,8.88
2023-01-03T18:21:51.767Z,9.15
2023-01-03T18:24:04.827Z,11.23
2023-01-03T18:26:07.894Z,13.80
2023-01-03T18:28:11.029Z,16.38
2023-01-03T18:30:15.605Z,16.15
2023-01-03T18:32:28.215Z,15.02
2023-01-03T18:34:30.377Z,13.75
2023-01-03T18:36:36.201Z,14.82
2023-01-03T18:38:41.195Z,13.52
2023-01-03T18:40:43.520Z,14.45
2023-01-03T18:43:05.001Z,15.15
2023-01-03T18:45:07.552Z,16.38
2023-01-03T18:47:12.904Z,15.45
2023-01-03T18:49:15.534Z,15.13
2023-01-03T18:51:19.050Z,14.70
2023-01-03T18:53:25.263Z,15.00
2023-01-03T18:55:28.589Z,13.95
2023-01-03T18:57:30.836Z,13.63
2023-01-03T18:59:33.057Z,13.52
2023-01-03T19:01:35.758Z,13.65
2023-01-03T19:03:40.200Z,14.10
2023-01-03T19:05:42.495Z,15.15
2023-01-03T19:07:45.815Z,15.20
2023-01-03T19:09:47.979Z,13.77
2023-01-03T19:11:50.267Z,14.20
2023-01-03T19:13:54.847Z,13.10
2023-01-03T19:15:57.564Z,14.38
2023-01-03T19:18:01.329Z,14.13
2023-01-03T19:20:03.549Z,13.98
2023-01-03T19:22:08.263Z,13.40
2023-01-03T19:24:24.663Z,12.60
2023-01-03T19:26:31.405Z,14.07
2023-01-03T19:28:33.584Z,13.13
2023-01-03T19:30:41.353Z,12.90
2023-01-03T19:32:43.937Z,15.27
2023-01-03T19:34:46.194Z,14.70
2023-01-03T19:36:48.517Z,15.70
2023-01-03T19:38:50.844Z,15.98
2023-01-03T19:40:53.022Z,14.93
2023-01-03T19:42:56.200Z,14.70
2023-01-03T19:45:00.033Z,14.90
2023-01-03T19:47:02.694Z,14.50
2023-01-03T19:51:07.223Z,13.50
2023-01-03T19:53:09.415Z,13.70
2023-01-03T19:55:12.246Z,13.45
2023-01-03T19:57:24.796Z,13.23
2023-01-03T19:59:29.919Z,13.55
2023-01-03T20:01:50.534Z,13.00
2023-01-03T20:05:57.880Z,12.30
2023-01-03T20:08:00.037Z,12.18
2023-01-03T20:10:02.404Z,13.48
2023-01-03T20:12:04.566Z,13.45
2023-01-03T20:14:07.741Z,14.98
2023-01-03T20:16:10.787Z,14.82
2023-01-03T20:18:29.422Z,14.00
2023-01-03T20:20:33.681Z,14.55
2023-01-03T20:24:58.061Z,13.75
2023-01-03T20:27:00.398Z,13.00
2023-01-03T20:29:03.023Z,13.15
2023-01-03T20:33:07.487Z,12.73
2023-01-03T20:35:56.161Z,12.38
2023-01-03T20:37:35.895Z,11.60
2023-01-03T20:39:38.077Z,11.57
2023-01-03T20:41:40.244Z,12.05
2023-01-03T20:43:43.055Z,11.25
2023-01-03T20:45:45.928Z,11.82
2023-01-03T20:47:54.189Z,10.75
2023-01-03T20:49:56.399Z,10.77
2023-01-03T20:51:58.519Z,10.77
2023-01-03T20:54:00.668Z,10.63
2023-01-03T20:56:02.844Z,12.32
2023-01-03T20:58:05.012Z,9.70
2023-01-03T21:00:07.608Z,12.45
2023-01-03T21:04:12.544Z,11.25
2023-01-03T21:06:19.681Z,11.02
2023-01-03T21:08:40.558Z,11.70
2023-01-03T21:10:43.693Z,11.65
2023-01-03T21:12:45.792Z,11.68
2023-01-03T21:14:49.514Z,11.77
2023-01-03T21:16:51.819Z,12.43
2023-01-03T21:18:54.182Z,12.02
2023-01-03T21:20:56.557Z,12.48
2023-01-03T21:22:58.888Z,12.95
2023-01-03T21:25:01.996Z,12.15
2023-01-03T21:27:04.141Z,12.43
2023-01-03T21:29:06.404Z,12.57
2023-01-03T21:31:13.609Z,13.32
2023-01-03T21:33:17.872Z,12.50
2023-01-03T21:35:21.152Z,12.55
2023-01-03T21:37:23.292Z,12.68
2023-01-03T21:39:25.378Z,12.07
2023-01-03T21:41:28.850Z,12.75
2023-01-03T21:43:31.029Z,11.57
2023-01-03T21:45:44.923Z,12.73
2023-01-03T21:47:47.105Z,12.73
2023-01-03T21:49:49.251Z,12.70
2023-01-03T21:51:51.391Z,12.88
2023-01-03T21:53:53.569Z,12.93
2023-01-03T21:55:55.698Z,12.90
2023-01-03T21:57:58.460Z,12.20
2023-01-03T22:00:00.826Z,11.52
2023-01-03T22:02:21.855Z,12.90
2023-01-03T22:04:24.325Z,13.18
2023-01-03T22:06:26.560Z,12.85
2023-01-03T22:08:28.722Z,12.70
2023-01-03T22:10:31.110Z,10.95
2023-01-03T22:12:33.262Z,12.13
2023-01-03T22:14:35.666Z,11.27
2023-01-03T22:16:37.887Z,11.32
2023-01-03T22:18:40.380Z,10.77
2023-01-03T22:20:42.539Z,10.07
2023-01-03T22:22:45.511Z,10.48
2023-01-03T22:24:47.720Z,9.75
2023-01-03T22:26:49.889Z,9.27
2023-01-03T22:28:52.067Z,9.43
2023-01-03T22:30:54.151Z,10.52
2023-01-03T22:32:57.443Z,8.82
2023-01-03T22:34:59.659Z,9.88
2023-01-03T22:37:01.836Z,8.82
2023-01-03T22:39:04.085Z,8.68
2023-01-03T22:41:10.402Z,8.77
2023-01-03T22:43:12.558Z,8.40
2023-01-03T22:45:15.564Z,8.85
2023-01-03T22:47:17.722Z,8.52
2023-01-03T22:49:19.843Z,9.50
2023-01-03T22:51:22.004Z,8.77
2023-01-03T22:53:24.114Z,9.27
2023-01-03T22:55:30.119Z,9.50
2023-01-03T22:57:34.248Z,8.82
2023-01-03T22:59:36.541Z,8.88
2023-01-03T23:01:38.767Z,9.02
2023-01-03T23:03:41.023Z,9.02
2023-01-03T23:05:43.213Z,8.70
2023-01-03T23:07:45.341Z,8.82
2023-01-03T23:09:48.308Z,8.55
2023-01-03T23:12:09.565Z,8.48
2023-01-03T23:14:16.743Z,9.00
2023-01-03T23:16:18.927Z,8.52
2023-01-03T23:18:21.097Z,8.27
2023-01-03T23:20:33.653Z,8.68
2023-01-03T23:22:35.810Z,8.98
2023-01-03T23:24:37.948Z,8.70
2023-01-03T23:26:40.073Z,8.40
2023-01-03T23:28:42.237Z,8.93
2023-01-03T23:30:44.429Z,8.57
2023-01-03T23:32:46.792Z,9.60
2023-01-03T23:34:49.047Z,8.15
2023-01-03T23:36:51.153Z,8.52
2023-01-03T23:38:53.910Z,8.18
2023-01-03T23:40:56.069Z,8.00
2023-01-03T23:42:58.471Z,8.13
2023-01-03T23:45:00.774Z,7.68
2023-01-03T23:47:07.683Z,8.65
2023-01-03T23:49:13.592Z,7.35
2023-01-03T23:51:15.871Z,7.68
2023-01-03T23:53:18.335Z,7.10
2023-01-03T23:55:20.543Z,7.90
2023-01-03T23:57:22.683Z,8.18
2023-01-03T23:59:24.813Z,7.35
